createdAt,value
2019-04-23T00:01:41.859Z,978.88
2019-04-23T00:03:43.530Z,978.81
2019-04-23T00:05:48.137Z,978.56
2019-04-23T00:07:51.957Z,978.42
2019-04-23T00:09:39.860Z,978.48
2019-04-23T00:11:41.676Z,978.51
2019-04-23T00:13:44.299Z,978.34
2019-04-23T00:15:45.290Z,978.35
2019-04-23T00:17:42.512Z,978.21
2019-04-23T00:19:43.315Z,978.26
2019-04-23T00:21:40.900Z,978.34
2019-04-23T00:23:44.865Z,978.48
2019-04-23T00:27:47.813Z,978.04
2019-04-23T00:29:45.975Z,978.47
2019-04-23T00:31:41.205Z,978.37
2019-04-23T00:33:37.356Z,978.42
2019-04-23T00:35:39.875Z,978.10
2019-04-23T00:37:35.563Z,978.27
2019-04-23T00:39:41.239Z,978.08
2019-04-23T00:43:41.005Z,977.81
2019-04-23T00:47:40.142Z,978.45
2019-04-23T00:49:41.442Z,978.09
2019-04-23T00:51:37.960Z,978.24
2019-04-23T00:53:34.278Z,977.70
2019-04-23T00:55:44.747Z,978.02
2019-04-23T00:57:35.981Z,978.23
2019-04-23T01:01:42.821Z,978.02
2019-04-23T01:03:29.409Z,977.97
2019-04-23T01:07:38.145Z,977.90
2019-04-23T01:09:39.016Z,977.62
2019-04-23T01:11:39.171Z,978.03
2019-04-23T01:13:45.156Z,978.11
2019-04-23T01:15:41.129Z,978.07
2019-04-23T01:19:37.215Z,977.85
2019-04-23T01:21:18.123Z,977.82
2019-04-23T01:23:20.645Z,978.08
2019-04-23T01:25:24.703Z,978.18
2019-04-23T01:29:39.194Z,977.80
2019-04-23T01:31:43.009Z,977.68
2019-04-23T01:33:47.227Z,977.69
2019-04-23T01:35:36.025Z,977.85
2019-04-23T01:37:41.162Z,977.63
2019-04-23T01:41:33.385Z,977.84
2019-04-23T01:43:42.848Z,977.71
2019-04-23T01:45:38.821Z,977.80
2019-04-23T01:47:47.172Z,977.51
2019-04-23T01:51:46.691Z,977.52
2019-04-23T01:53:45.817Z,977.54
2019-04-23T01:55:42.197Z,977.60
2019-04-23T01:57:46.594Z,977.69
2019-04-23T01:59:46.188Z,977.41
2019-04-23T02:01:47.633Z,977.70
2019-04-23T02:03:34.868Z,977.36
2019-04-23T02:05:42.631Z,977.64
2019-04-23T02:11:47.449Z,977.46
2019-04-23T02:13:47.431Z,977.05
2019-04-23T02:15:41.350Z,976.81
2019-04-23T02:17:50.216Z,977.06
2019-04-23T02:19:45.798Z,977.01
2019-04-23T02:21:47.696Z,977.16
2019-04-23T02:27:36.326Z,977.16
2019-04-23T02:29:55.995Z,977.10
2019-04-23T02:33:53.874Z,977.29
2019-04-23T02:35:56.241Z,976.91
2019-04-23T02:40:01.027Z,976.65
2019-04-23T02:41:58.329Z,976.41
2019-04-23T02:43:56.428Z,976.87
2019-04-23T02:45:59.148Z,976.85
2019-04-23T02:47:53.042Z,976.61
2019-04-23T02:49:54.869Z,976.26
2019-04-23T02:51:51.164Z,976.60
2019-04-23T02:53:51.070Z,976.71
2019-04-23T02:55:50.186Z,976.42
2019-04-23T02:57:50.348Z,976.27
2019-04-23T03:00:07.867Z,976.59
2019-04-23T03:01:31.237Z,976.47
2019-04-23T03:03:42.835Z,976.69
2019-04-23T03:05:45.570Z,976.42
2019-04-23T03:07:42.716Z,976.69
2019-04-23T03:09:56.584Z,976.52
2019-04-23T03:13:55.571Z,976.49
2019-04-23T03:16:04.090Z,976.53
2019-04-23T03:18:06.053Z,976.55
2019-04-23T03:19:38.395Z,976.47
2019-04-23T03:23:47.125Z,976.42
2019-04-23T03:25:42.243Z,976.45
2019-04-23T03:27:34.081Z,976.64
2019-04-23T03:37:42.519Z,976.18
2019-04-23T03:39:56.867Z,976.58
2019-04-23T03:41:43.855Z,976.27
2019-04-23T03:51:51.523Z,976.32
2019-04-23T03:53:45.432Z,976.27
2019-04-23T03:55:58.683Z,976.24
2019-04-23T03:57:45.026Z,976.32
2019-04-23T03:59:58.881Z,976.11
2019-04-23T04:08:05.038Z,976.42
2019-04-23T04:09:48.070Z,976.20
2019-04-23T04:11:33.704Z,976.21
2019-04-23T04:13:42.442Z,976.15
2019-04-23T04:15:57.077Z,976.56
2019-04-23T04:19:41.987Z,976.38
2019-04-23T04:21:39.034Z,976.19
2019-04-23T04:23:54.811Z,976.25
2019-04-23T04:25:41.287Z,976.36
2019-04-23T04:27:47.940Z,976.30
2019-04-23T04:31:52.143Z,976.46
2019-04-23T04:35:48.374Z,976.20
2019-04-23T04:41:58.715Z,976.03
2019-04-23T04:46:04.966Z,976.18
2019-04-23T04:52:01.153Z,975.81
2019-04-23T04:55:55.738Z,975.85
2019-04-23T04:57:56.654Z,976.27
2019-04-23T04:59:50.793Z,976.28
2019-04-23T05:01:36.913Z,975.85
2019-04-23T05:03:36.308Z,976.21
2019-04-23T05:06:06.407Z,975.84
2019-04-23T05:07:48.145Z,975.88
2019-04-23T05:11:51.882Z,975.69
2019-04-23T05:15:37.387Z,975.97
2019-04-23T05:19:35.509Z,975.84
2019-04-23T05:27:55.203Z,975.86
2019-04-23T05:29:46.704Z,976.09
2019-04-23T05:31:32.923Z,976.07
2019-04-23T05:33:49.259Z,975.89
2019-04-23T05:36:06.019Z,975.59
2019-04-23T05:38:05.379Z,976.01
2019-04-23T05:39:35.193Z,975.96
2019-04-23T05:41:40.093Z,975.63
2019-04-23T05:43:48.135Z,975.85
2019-04-23T05:45:34.392Z,975.98
2019-04-23T05:47:47.482Z,975.85
2019-04-23T05:49:45.982Z,975.87
2019-04-23T05:51:50.471Z,976.02
2019-04-23T05:57:40.431Z,975.89
2019-04-23T05:59:34.313Z,975.61
2019-04-23T06:01:54.283Z,976.05
2019-04-23T06:03:54.406Z,975.85
2019-04-23T06:05:49.664Z,975.95
2019-04-23T06:07:35.795Z,975.81
2019-04-23T06:09:46.368Z,975.82
2019-04-23T06:11:52.617Z,975.67
2019-04-23T06:17:29.846Z,975.47
2019-04-23T06:19:44.545Z,975.68
2019-04-23T06:23:37.654Z,975.64
2019-04-23T06:27:48.304Z,975.85
2019-04-23T06:29:34.726Z,975.83
2019-04-23T06:31:38.009Z,975.57
2019-04-23T06:33:34.137Z,975.65
2019-04-23T06:35:47.342Z,975.33
2019-04-23T06:38:05.744Z,975.72
2019-04-23T06:39:38.069Z,975.42
2019-04-23T06:41:44.884Z,975.30
2019-04-23T06:43:47.172Z,975.21
2019-04-23T06:45:32.565Z,975.24
2019-04-23T06:47:43.041Z,975.79
2019-04-23T06:49:49.467Z,975.65
2019-04-23T06:51:52.206Z,975.34
2019-04-23T06:53:43.272Z,975.21
2019-04-23T06:55:44.668Z,975.48
2019-04-23T06:57:37.112Z,975.45
2019-04-23T06:59:41.444Z,975.55
2019-04-23T07:01:53.017Z,975.59
2019-04-23T07:15:46.518Z,975.34
2019-04-23T07:17:34.978Z,975.32
2019-04-23T07:21:33.659Z,975.05
2019-04-23T07:23:45.629Z,975.03
2019-04-23T07:25:38.619Z,975.07
2019-04-23T07:27:37.773Z,974.93
2019-04-23T07:29:43.512Z,975.10
2019-04-23T07:31:44.507Z,975.00
2019-04-23T07:33:44.625Z,974.80
2019-04-23T07:35:30.525Z,975.24
2019-04-23T07:37:43.188Z,974.89
2019-04-23T07:41:47.904Z,974.93
2019-04-23T07:43:34.615Z,975.04
2019-04-23T07:47:40.023Z,974.86
2019-04-23T07:51:50.160Z,974.98
2019-04-23T07:53:43.589Z,974.85
2019-04-23T07:55:43.162Z,974.97
2019-04-23T07:57:40.129Z,975.00
2019-04-23T07:59:33.053Z,974.76
2019-04-23T08:01:37.554Z,974.94
2019-04-23T08:03:36.567Z,974.99
2019-04-23T08:07:35.827Z,974.92
2019-04-23T08:09:48.045Z,974.75
2019-04-23T08:11:40.080Z,974.66
2019-04-23T08:13:47.378Z,974.90
2019-04-23T08:15:45.235Z,974.72
2019-04-23T08:17:37.562Z,974.59
2019-04-23T08:19:49.376Z,974.58
2019-04-23T08:21:31.815Z,974.53
2019-04-23T08:23:44.038Z,974.80
2019-04-23T08:25:44.436Z,974.50
2019-04-23T08:27:28.188Z,974.74
2019-04-23T08:29:30.688Z,974.59
2019-04-23T08:31:43.756Z,974.46
2019-04-23T08:33:42.262Z,974.81
2019-04-23T08:35:43.634Z,974.62
2019-04-23T08:39:33.993Z,974.39
2019-04-23T08:41:36.019Z,974.51
2019-04-23T08:43:42.863Z,974.31
2019-04-23T08:45:38.476Z,974.60
2019-04-23T08:47:27.648Z,974.38
2019-04-23T08:51:37.380Z,974.71
2019-04-23T08:53:40.809Z,974.33
2019-04-23T08:55:48.128Z,974.34
2019-04-23T09:00:00.386Z,974.78
2019-04-23T09:01:57.592Z,974.44
2019-04-23T09:03:30.171Z,974.68
2019-04-23T09:05:46.734Z,974.29
2019-04-23T09:07:36.126Z,974.55
2019-04-23T09:09:45.430Z,974.38
2019-04-23T09:11:45.865Z,974.32
2019-04-23T09:13:49.884Z,974.38
2019-04-23T09:15:44.606Z,974.21
2019-04-23T09:17:34.861Z,974.44
2019-04-23T09:21:46.017Z,974.31
2019-04-23T09:27:42.103Z,974.63
2019-04-23T09:29:45.796Z,974.28
2019-04-23T09:31:55.482Z,974.27
2019-04-23T09:35:42.736Z,974.18
2019-04-23T09:39:42.243Z,973.98
2019-04-23T09:41:28.054Z,974.30
2019-04-23T09:47:46.298Z,974.05
2019-04-23T09:49:44.410Z,974.08
2019-04-23T09:51:37.913Z,974.00
2019-04-23T09:53:29.579Z,974.00
2019-04-23T09:55:38.838Z,974.10
2019-04-23T09:57:46.604Z,974.29
2019-04-23T10:01:29.036Z,974.25
2019-04-23T10:03:20.962Z,974.01
2019-04-23T10:05:28.852Z,974.15
2019-04-23T10:07:28.593Z,974.02
2019-04-23T10:09:16.161Z,974.21
2019-04-23T10:11:15.976Z,974.00
2019-04-23T10:13:15.774Z,973.96
2019-04-23T10:15:22.737Z,974.05
2019-04-23T10:17:16.061Z,973.90
2019-04-23T10:19:15.181Z,974.16
2019-04-23T10:21:15.527Z,973.93
2019-04-23T10:23:15.900Z,973.99
2019-04-23T10:25:15.205Z,974.31
2019-04-23T10:27:14.843Z,973.95
2019-04-23T10:29:15.939Z,973.83
2019-04-23T10:31:14.630Z,974.08
2019-04-23T10:33:15.737Z,974.16
2019-04-23T10:35:22.336Z,973.76
2019-04-23T10:37:15.609Z,973.81
2019-04-23T10:39:20.751Z,973.92
2019-04-23T10:41:15.991Z,973.86
2019-04-23T10:43:15.218Z,973.93
2019-04-23T10:45:27.327Z,973.64
2019-04-23T10:51:40.990Z,973.65
2019-04-23T10:57:31.221Z,973.60
2019-04-23T11:01:43.644Z,973.56
2019-04-23T11:03:59.824Z,973.63
2019-04-23T11:05:50.224Z,973.80
2019-04-23T11:07:43.943Z,973.64
2019-04-23T11:11:46.460Z,973.90
2019-04-23T11:13:45.257Z,973.81
2019-04-23T11:15:44.246Z,973.48
2019-04-23T11:17:46.303Z,973.81
2019-04-23T11:19:49.095Z,973.84
2019-04-23T11:21:40.343Z,973.72
2019-04-23T11:23:43.931Z,973.70
2019-04-23T11:25:49.949Z,973.75
2019-04-23T11:27:42.037Z,973.89
2019-04-23T11:29:34.414Z,973.60
2019-04-23T11:33:46.481Z,973.78
2019-04-23T11:35:40.139Z,973.75
2019-04-23T11:43:38.050Z,973.44
2019-04-23T11:49:50.594Z,973.83
2019-04-23T11:55:49.301Z,973.77
2019-04-23T11:57:51.976Z,973.95
2019-04-23T11:59:47.310Z,973.43
2019-04-23T12:03:56.474Z,973.84
2019-04-23T12:05:32.151Z,973.78
2019-04-23T12:07:30.508Z,973.82
2019-04-23T12:11:53.831Z,973.66
2019-04-23T12:15:46.433Z,973.64
2019-04-23T12:17:41.114Z,973.45
2019-04-23T12:23:48.431Z,973.63
2019-04-23T12:27:33.309Z,973.54
2019-04-23T12:31:32.616Z,973.63
2019-04-23T12:35:27.604Z,973.42
2019-04-23T12:37:41.432Z,973.65
2019-04-23T12:39:41.539Z,973.35
2019-04-23T12:43:41.833Z,973.34
2019-04-23T12:45:38.865Z,973.45
2019-04-23T12:47:50.083Z,973.26
2019-04-23T12:57:34.529Z,973.02
2019-04-23T12:59:44.735Z,973.19
2019-04-23T13:01:48.983Z,973.29
2019-04-23T13:05:32.786Z,973.22
2019-04-23T13:09:49.570Z,973.15
2019-04-23T13:11:42.255Z,973.20
2019-04-23T13:15:40.270Z,973.17
2019-04-23T13:19:51.482Z,973.36
2019-04-23T13:21:57.134Z,973.03
2019-04-23T13:23:43.837Z,973.14
2019-04-23T13:25:35.067Z,973.10
2019-04-23T13:27:41.597Z,973.17
2019-04-23T13:29:37.936Z,973.17
2019-04-23T13:37:35.481Z,972.92
2019-04-23T13:39:44.272Z,973.41
2019-04-23T13:41:40.568Z,972.41
2019-04-23T13:43:42.680Z,973.01
2019-04-23T13:45:59.588Z,972.61
2019-04-23T13:49:39.657Z,972.75
2019-04-23T13:51:40.443Z,972.72
2019-04-23T13:53:50.119Z,972.63
2019-04-23T13:59:44.549Z,972.52
2019-04-23T14:01:43.034Z,972.70
2019-04-23T14:05:45.295Z,972.86
2019-04-23T14:07:48.431Z,972.61
2019-04-23T14:09:54.911Z,972.73
2019-04-23T14:11:30.912Z,972.26
2019-04-23T14:13:49.586Z,972.71
2019-04-23T14:17:51.576Z,972.45
2019-04-23T14:21:39.179Z,972.43
2019-04-23T14:23:52.670Z,972.79
2019-04-23T14:25:39.954Z,972.67
2019-04-23T14:27:49.444Z,972.92
2019-04-23T14:29:50.315Z,972.44
2019-04-23T14:31:31.736Z,972.67
2019-04-23T14:33:42.701Z,972.83
2019-04-23T14:37:35.314Z,972.64
2019-04-23T14:39:45.818Z,972.52
2019-04-23T14:43:49.368Z,972.57
2019-04-23T14:45:39.385Z,972.83
2019-04-23T14:53:33.388Z,972.61
2019-04-23T14:55:56.312Z,972.48
2019-04-23T14:59:51.064Z,972.74
2019-04-23T15:07:42.210Z,972.34
2019-04-23T15:09:44.054Z,972.78
2019-04-23T15:11:40.242Z,972.50
2019-04-23T15:13:46.692Z,972.34
2019-04-23T15:15:51.412Z,972.62
2019-04-23T15:17:40.593Z,972.34
2019-04-23T15:26:15.462Z,972.38
2019-04-23T15:28:20.376Z,972.77
2019-04-23T15:29:31.838Z,972.52
2019-04-23T15:33:57.336Z,972.57
2019-04-23T15:35:57.564Z,972.24
2019-04-23T15:37:40.927Z,972.30
2019-04-23T15:39:31.310Z,972.43
2019-04-23T15:41:52.094Z,972.36
2019-04-23T15:43:49.543Z,972.78
2019-04-23T15:45:44.851Z,972.51
2019-04-23T15:47:50.730Z,972.73
2019-04-23T15:49:48.928Z,972.65
2019-04-23T15:51:40.872Z,972.65
2019-04-23T15:53:41.126Z,972.45
2019-04-23T15:55:33.797Z,972.59
2019-04-23T15:58:00.917Z,972.54
2019-04-23T16:01:37.079Z,972.55
2019-04-23T16:03:17.531Z,972.42
2019-04-23T16:05:16.892Z,972.52
2019-04-23T16:07:31.417Z,972.25
2019-04-23T16:09:39.902Z,972.43
2019-04-23T16:11:44.195Z,972.52
2019-04-23T16:13:55.605Z,972.32
2019-04-23T16:15:41.581Z,972.39
2019-04-23T16:17:43.354Z,972.14
2019-04-23T16:19:45.916Z,972.32
2019-04-23T16:23:42.399Z,972.38
2019-04-23T16:25:36.387Z,972.35
2019-04-23T16:27:41.828Z,972.49
2019-04-23T16:29:54.180Z,972.70
2019-04-23T16:33:46.024Z,972.55
2019-04-23T16:35:32.911Z,972.48
2019-04-23T16:37:49.238Z,972.42
2019-04-23T16:43:34.756Z,972.38
2019-04-23T16:45:45.478Z,972.28
2019-04-23T16:47:28.465Z,972.40
2019-04-23T16:49:42.198Z,972.42
2019-04-23T16:51:27.438Z,972.71
2019-04-23T16:53:29.918Z,972.56
2019-04-23T16:55:47.581Z,972.25
2019-04-23T16:57:54.140Z,972.53
2019-04-23T16:59:46.834Z,972.25
2019-04-23T17:01:46.652Z,972.32
2019-04-23T17:03:49.796Z,972.31
2019-04-23T17:05:34.359Z,972.49
2019-04-23T17:07:41.124Z,972.15
2019-04-23T17:09:37.361Z,972.29
2019-04-23T17:11:43.785Z,972.55
2019-04-23T17:13:37.640Z,972.44
2019-04-23T17:15:53.535Z,972.40
2019-04-23T17:17:37.980Z,972.47
2019-04-23T17:21:32.082Z,972.64
2019-04-23T17:23:52.305Z,972.41
2019-04-23T17:25:41.791Z,972.76
2019-04-23T17:29:41.836Z,972.63
2019-04-23T17:31:38.181Z,972.66
2019-04-23T17:33:35.611Z,972.82
2019-04-23T17:35:30.387Z,972.52
2019-04-23T17:37:35.171Z,972.64
2019-04-23T17:39:32.551Z,972.58
2019-04-23T17:41:50.181Z,972.45
2019-04-23T17:45:42.371Z,972.55
2019-04-23T17:51:40.957Z,972.59
2019-04-23T17:53:29.859Z,972.44
2019-04-23T17:59:51.802Z,972.52
2019-04-23T18:01:25.643Z,972.89
2019-04-23T18:03:49.537Z,972.69
2019-04-23T18:07:50.450Z,972.69
2019-04-23T18:09:45.598Z,972.77
2019-04-23T18:11:31.908Z,972.57
2019-04-23T18:15:41.311Z,972.69
2019-04-23T18:19:30.969Z,972.62
2019-04-23T18:25:43.627Z,972.97
2019-04-23T18:27:31.400Z,972.80
2019-04-23T18:29:47.408Z,972.83
2019-04-23T18:31:44.518Z,972.51
2019-04-23T18:35:36.101Z,973.04
2019-04-23T18:37:44.224Z,972.90
2019-04-23T18:41:38.249Z,973.06
2019-04-23T18:43:38.918Z,972.79
2019-04-23T18:45:45.084Z,973.09
2019-04-23T18:47:45.797Z,972.80
2019-04-23T18:55:58.890Z,972.86
2019-04-23T18:57:45.747Z,972.78
2019-04-23T18:59:37.213Z,973.00
2019-04-23T19:01:36.613Z,972.90
2019-04-23T19:03:41.077Z,973.01
2019-04-23T19:05:50.782Z,973.04
2019-04-23T19:07:53.290Z,973.26
2019-04-23T19:11:51.834Z,972.88
2019-04-23T19:15:42.219Z,973.32
2019-04-23T19:19:52.520Z,973.16
2019-04-23T19:22:05.912Z,973.24
2019-04-23T19:23:47.670Z,973.38
2019-04-23T19:25:40.512Z,973.54
2019-04-23T19:27:47.333Z,973.29
2019-04-23T19:31:53.259Z,973.45
2019-04-23T19:37:43.602Z,973.30
2019-04-23T19:39:44.926Z,973.46
2019-04-23T19:43:54.385Z,973.36
2019-04-23T19:45:50.234Z,973.51
2019-04-23T19:47:56.456Z,973.50
2019-04-23T19:49:35.502Z,973.65
2019-04-23T19:51:51.127Z,973.77
2019-04-23T19:55:49.814Z,973.56
2019-04-23T19:57:50.477Z,973.93
2019-04-23T19:59:50.703Z,973.73
2019-04-23T20:01:41.704Z,973.76
2019-04-23T20:03:49.511Z,973.60
2019-04-23T20:05:51.554Z,973.63
2019-04-23T20:07:43.773Z,973.49
2019-04-23T20:09:50.729Z,973.76
2019-04-23T20:11:52.825Z,973.76
2019-04-23T20:15:59.339Z,973.60
2019-04-23T20:17:43.287Z,973.68
2019-04-23T20:19:44.812Z,973.54
2019-04-23T20:21:44.447Z,973.69
2019-04-23T20:29:45.471Z,973.98
2019-04-23T20:32:07.056Z,973.56
2019-04-23T20:34:06.055Z,973.46
2019-04-23T20:35:52.417Z,973.67
2019-04-23T20:39:47.432Z,973.67
2019-04-23T20:41:55.115Z,973.81
2019-04-23T20:43:49.106Z,974.03
2019-04-23T20:45:46.591Z,973.67
2019-04-23T20:47:45.406Z,973.68
2019-04-23T20:49:45.609Z,973.88
2019-04-23T20:51:50.885Z,973.68
2019-04-23T20:53:47.207Z,973.87
2019-04-23T20:55:58.449Z,974.01
2019-04-23T20:59:56.067Z,973.93
2019-04-23T21:01:48.078Z,973.61
2019-04-23T21:05:32.982Z,973.66
2019-04-23T21:07:54.274Z,973.58
2019-04-23T21:14:02.025Z,973.87
2019-04-23T21:17:55.921Z,973.80
2019-04-23T21:19:40.136Z,973.83
2019-04-23T21:21:40.142Z,973.86
2019-04-23T21:25:44.661Z,974.02
2019-04-23T21:27:38.671Z,973.89
2019-04-23T21:29:53.585Z,973.74
2019-04-23T21:31:30.600Z,973.79
2019-04-23T21:35:59.145Z,973.99
2019-04-23T21:37:49.792Z,974.18
2019-04-23T21:39:53.632Z,973.96
2019-04-23T21:41:51.001Z,974.00
2019-04-23T21:44:05.460Z,973.99
2019-04-23T21:45:50.044Z,973.96
2019-04-23T21:47:54.792Z,974.11
2019-04-23T21:49:56.275Z,973.64
2019-04-23T21:53:46.330Z,973.99
2019-04-23T21:55:38.950Z,973.82
2019-04-23T21:57:52.911Z,973.81
2019-04-23T21:59:44.680Z,974.00
2019-04-23T22:01:44.761Z,973.99
2019-04-23T22:04:02.808Z,974.15
2019-04-23T22:05:53.209Z,973.85
2019-04-23T22:07:51.653Z,973.97
2019-04-23T22:11:57.288Z,974.47
2019-04-23T22:16:00.467Z,974.08
2019-04-23T22:17:44.361Z,974.40
2019-04-23T22:19:37.876Z,974.26
2019-04-23T22:21:47.195Z,974.33
2019-04-23T22:23:52.611Z,974.14
2019-04-23T22:25:48.667Z,974.19
2019-04-23T22:27:52.523Z,974.07
2019-04-23T22:29:41.882Z,973.95
2019-04-23T22:31:37.834Z,974.16
2019-04-23T22:33:56.146Z,974.05
2019-04-23T22:35:40.511Z,974.17
2019-04-23T22:37:49.912Z,974.38
2019-04-23T22:39:50.204Z,974.09
2019-04-23T22:41:54.974Z,974.29
2019-04-23T22:43:57.705Z,974.34
2019-04-23T22:47:47.972Z,974.24
2019-04-23T22:49:46.750Z,974.18
2019-04-23T22:51:41.486Z,974.13
2019-04-23T22:53:55.634Z,974.26
2019-04-23T22:59:54.345Z,974.37
2019-04-23T23:01:43.124Z,974.36
2019-04-23T23:03:47.575Z,974.41
2019-04-23T23:13:41.643Z,974.41
2019-04-23T23:15:49.292Z,974.15
2019-04-23T23:17:48.083Z,974.68
2019-04-23T23:19:50.998Z,974.12
2019-04-23T23:21:47.265Z,974.34
2019-04-23T23:23:39.380Z,974.25
2019-04-23T23:25:30.487Z,974.48
2019-04-23T23:27:51.492Z,974.30
2019-04-23T23:29:49.289Z,974.33
2019-04-23T23:31:54.220Z,974.02
2019-04-23T23:37:37.113Z,974.36
2019-04-23T23:39:49.956Z,974.27
2019-04-23T23:41:49.006Z,974.46
2019-04-23T23:45:55.355Z,974.34
2019-04-23T23:47:49.864Z,974.27
2019-04-23T23:49:34.193Z,974.57
2019-04-23T23:51:44.742Z,974.64
2019-04-23T23:53:40.642Z,974.41
2019-04-23T23:55:49.276Z,974.45
2019-04-23T23:57:50.933Z,974.55
2019-04-23T23:59:53.789Z,974.33
